sensor_id;sensor_type;location;lat;lon;timestamp;temperature;humidity
11934;DHT22;6026;48.784;9.198;2023-04-03T00:00:56;3.90;99.90
11934;DHT22;6026;48.784;9.198;2023-04-03T00:03:21;3.90;99.90
11934;DHT22;6026;48.784;9.198;2023-04-03T00:05:47;3.90;99.90
11934;DHT22;6026;48.784;9.198;2023-04-03T00:08:13;3.90;99.90
11934;DHT22;6026;48.784;9.198;2023-04-03T00:10:39;3.90;99.90
11934;DHT22;6026;48.784;9.198;2023-04-03T00:13:06;3.90;99.90
11934;DHT22;6026;48.784;9.198;2023-04-03T00:15:31;3.80;99.90
11934;DHT22;6026;48.784;9.198;2023-04-03T00:17:57;3.90;99.90
11934;DHT22;6026;48.784;9.198;2023-04-03T00:20:22;3.80;99.90
11934;DHT22;6026;48.784;9.198;2023-04-03T00:22:48;3.80;99.90
11934;DHT22;6026;48.784;9.198;2023-04-03T00:25:14;3.80;99.90
11934;DHT22;6026;48.784;9.198;2023-04-03T00:27:40;3.80;99.90
11934;DHT22;6026;48.784;9.198;2023-04-03T00:30:07;3.90;99.90
11934;DHT22;6026;48.784;9.198;2023-04-03T00:32:33;3.90;99.90
11934;DHT22;6026;48.784;9.198;2023-04-03T00:34:59;3.90;99.90
11934;DHT22;6026;48.784;9.198;2023-04-03T00:37:24;3.80;99.90
11934;DHT22;6026;48.784;9.198;2023-04-03T00:39:50;3.90;99.90
11934;DHT22;6026;48.784;9.198;2023-04-03T00:42:15;3.90;99.90
11934;DHT22;6026;48.784;9.198;2023-04-03T00:47:09;3.80;99.90
11934;DHT22;6026;48.784;9.198;2023-04-03T00:49:36;3.80;99.90
11934;DHT22;6026;48.784;9.198;2023-04-03T00:52:02;3.80;99.90
11934;DHT22;6026;48.784;9.198;2023-04-03T00:54:28;3.80;99.90
11934;DHT22;6026;48.784;9.198;2023-04-03T00:56:56;3.90;99.90
11934;DHT22;6026;48.784;9.198;2023-04-03T00:59:27;3.80;99.90
11934;DHT22;6026;48.784;9.198;2023-04-03T01:01:56;3.80;99.90
11934;DHT22;6026;48.784;9.198;2023-04-03T01:04:33;3.80;99.90
11934;DHT22;6026;48.784;9.198;2023-04-03T01:07:24;3.80;99.90
11934;DHT22;6026;48.784;9.198;2023-04-03T01:09:55;3.70;99.90
11934;DHT22;6026;48.784;9.198;2023-04-03T01:12:27;3.70;99.90
11934;DHT22;6026;48.784;9.198;2023-04-03T01:14:55;3.70;99.90
11934;DHT22;6026;48.784;9.198;2023-04-03T01:17:47;3.70;99.90
11934;DHT22;6026;48.784;9.198;2023-04-03T01:25:39;3.70;99.90
11934;DHT22;6026;48.784;9.198;2023-04-03T01:28:07;3.60;99.90
11934;DHT22;6026;48.784;9.198;2023-04-03T01:30:46;3.70;99.90
11934;DHT22;6026;48.784;9.198;2023-04-03T01:33:13;3.70;99.90
11934;DHT22;6026;48.784;9.198;2023-04-03T01:35:39;3.70;99.90
11934;DHT22;6026;48.784;9.198;2023-04-03T01:38:05;3.70;99.90
11934;DHT22;6026;48.784;9.198;2023-04-03T01:40:31;3.60;99.90
11934;DHT22;6026;48.784;9.198;2023-04-03T01:42:57;3.60;99.90
11934;DHT22;6026;48.784;9.198;2023-04-03T01:45:22;3.60;99.90
11934;DHT22;6026;48.784;9.198;2023-04-03T01:47:48;3.60;99.90
11934;DHT22;6026;48.784;9.198;2023-04-03T01:50:13;3.60;99.90
11934;DHT22;6026;48.784;9.198;2023-04-03T01:52:39;3.60;99.90
11934;DHT22;6026;48.784;9.198;2023-04-03T01:55:05;3.60;99.90
11934;DHT22;6026;48.784;9.198;2023-04-03T01:57:31;3.60;99.90
11934;DHT22;6026;48.784;9.198;2023-04-03T01:59:56;3.60;99.90
11934;DHT22;6026;48.784;9.198;2023-04-03T02:02:22;3.60;99.90
11934;DHT22;6026;48.784;9.198;2023-04-03T02:04:47;3.60;99.90
11934;DHT22;6026;48.784;9.198;2023-04-03T02:07:13;3.60;99.90
11934;DHT22;6026;48.784;9.198;2023-04-03T02:09:38;3.50;99.90
11934;DHT22;6026;48.784;9.198;2023-04-03T02:12:04;3.60;99.90
11934;DHT22;6026;48.784;9.198;2023-04-03T02:14:30;3.50;99.90
11934;DHT22;6026;48.784;9.198;2023-04-03T02:16:55;3.60;99.90
11934;DHT22;6026;48.784;9.198;2023-04-03T02:19:21;3.60;99.90
11934;DHT22;6026;48.784;9.198;2023-04-03T02:21:46;3.60;99.90
11934;DHT22;6026;48.784;9.198;2023-04-03T02:24:12;3.60;99.90
11934;DHT22;6026;48.784;9.198;2023-04-03T02:26:37;3.60;99.90
11934;DHT22;6026;48.784;9.198;2023-04-03T02:29:03;3.50;99.90
11934;DHT22;6026;48.784;9.198;2023-04-03T02:31:28;3.60;99.90
11934;DHT22;6026;48.784;9.198;2023-04-03T02:33:54;3.60;99.90
11934;DHT22;6026;48.784;9.198;2023-04-03T02:36:20;3.60;99.90
11934;DHT22;6026;48.784;9.198;2023-04-03T02:38:45;3.60;99.90
11934;DHT22;6026;48.784;9.198;2023-04-03T02:41:11;3.60;99.90
11934;DHT22;6026;48.784;9.198;2023-04-03T02:43:38;3.50;99.90
11934;DHT22;6026;48.784;9.198;2023-04-03T02:46:04;3.50;99.90
11934;DHT22;6026;48.784;9.198;2023-04-03T02:48:30;3.60;99.90
11934;DHT22;6026;48.784;9.198;2023-04-03T02:50:55;3.60;99.90
11934;DHT22;6026;48.784;9.198;2023-04-03T02:53:21;3.60;99.90
11934;DHT22;6026;48.784;9.198;2023-04-03T02:55:47;3.50;99.90
11934;DHT22;6026;48.784;9.198;2023-04-03T02:58:12;3.50;99.90
11934;DHT22;6026;48.784;9.198;2023-04-03T03:00:38;3.60;99.90
11934;DHT22;6026;48.784;9.198;2023-04-03T03:03:04;3.50;99.90
11934;DHT22;6026;48.784;9.198;2023-04-03T03:05:31;3.50;99.90
11934;DHT22;6026;48.784;9.198;2023-04-03T03:07:56;3.50;99.90
11934;DHT22;6026;48.784;9.198;2023-04-03T03:10:22;3.50;99.90
11934;DHT22;6026;48.784;9.198;2023-04-03T03:12:48;3.50;99.90
11934;DHT22;6026;48.784;9.198;2023-04-03T03:15:14;3.40;99.90
11934;DHT22;6026;48.784;9.198;2023-04-03T03:17:41;3.50;99.90
11934;DHT22;6026;48.784;9.198;2023-04-03T03:20:07;3.50;99.90
11934;DHT22;6026;48.784;9.198;2023-04-03T03:22:33;3.50;99.90
11934;DHT22;6026;48.784;9.198;2023-04-03T03:24:59;3.50;99.90
11934;DHT22;6026;48.784;9.198;2023-04-03T03:27:26;3.50;99.90
11934;DHT22;6026;48.784;9.198;2023-04-03T03:29:52;3.50;99.90
11934;DHT22;6026;48.784;9.198;2023-04-03T03:32:17;3.50;99.90
11934;DHT22;6026;48.784;9.198;2023-04-03T03:34:43;3.60;99.90
11934;DHT22;6026;48.784;9.198;2023-04-03T03:37:08;3.50;99.90
11934;DHT22;6026;48.784;9.198;2023-04-03T03:39:34;3.50;99.90
11934;DHT22;6026;48.784;9.198;2023-04-03T03:42:00;3.50;99.90
11934;DHT22;6026;48.784;9.198;2023-04-03T03:44:25;3.50;99.90
11934;DHT22;6026;48.784;9.198;2023-04-03T03:46:51;3.50;99.90
11934;DHT22;6026;48.784;9.198;2023-04-03T03:49:17;3.50;99.90
11934;DHT22;6026;48.784;9.198;2023-04-03T03:51:42;3.50;99.90
11934;DHT22;6026;48.784;9.198;2023-04-03T03:54:09;3.50;99.90
11934;DHT22;6026;48.784;9.198;2023-04-03T03:56:35;3.50;99.90
11934;DHT22;6026;48.784;9.198;2023-04-03T03:59:00;3.50;99.90
11934;DHT22;6026;48.784;9.198;2023-04-03T04:01:26;3.50;99.90
11934;DHT22;6026;48.784;9.198;2023-04-03T04:03:51;3.50;99.90
11934;DHT22;6026;48.784;9.198;2023-04-03T04:06:19;3.50;99.90
11934;DHT22;6026;48.784;9.198;2023-04-03T04:08:45;3.50;99.90
11934;DHT22;6026;48.784;9.198;2023-04-03T04:11:10;3.50;99.90
11934;DHT22;6026;48.784;9.198;2023-04-03T04:13:36;3.50;99.90
11934;DHT22;6026;48.784;9.198;2023-04-03T04:16:02;3.50;99.90
11934;DHT22;6026;48.784;9.198;2023-04-03T04:18:27;3.60;99.90
11934;DHT22;6026;48.784;9.198;2023-04-03T04:20:53;3.60;99.90
11934;DHT22;6026;48.784;9.198;2023-04-03T04:23:19;3.60;99.90
11934;DHT22;6026;48.784;9.198;2023-04-03T04:25:45;3.60;99.90
11934;DHT22;6026;48.784;9.198;2023-04-03T04:28:12;3.60;99.90
11934;DHT22;6026;48.784;9.198;2023-04-03T04:30:38;3.50;99.90
11934;DHT22;6026;48.784;9.198;2023-04-03T04:33:03;3.60;99.90
11934;DHT22;6026;48.784;9.198;2023-04-03T04:35:29;3.60;99.90
11934;DHT22;6026;48.784;9.198;2023-04-03T04:37:54;3.60;99.90
11934;DHT22;6026;48.784;9.198;2023-04-03T04:40:20;3.60;99.90
11934;DHT22;6026;48.784;9.198;2023-04-03T04:42:46;3.60;99.90
11934;DHT22;6026;48.784;9.198;2023-04-03T04:45:12;3.50;99.90
11934;DHT22;6026;48.784;9.198;2023-04-03T04:47:37;3.50;99.90
11934;DHT22;6026;48.784;9.198;2023-04-03T04:50:03;3.50;99.90
11934;DHT22;6026;48.784;9.198;2023-04-03T04:52:29;3.40;99.90
11934;DHT22;6026;48.784;9.198;2023-04-03T04:54:55;3.50;99.90
11934;DHT22;6026;48.784;9.198;2023-04-03T04:57:20;3.50;99.90
11934;DHT22;6026;48.784;9.198;2023-04-03T04:59:46;3.50;99.90
11934;DHT22;6026;48.784;9.198;2023-04-03T05:02:11;3.50;99.90
11934;DHT22;6026;48.784;9.198;2023-04-03T05:04:37;3.50;99.90
11934;DHT22;6026;48.784;9.198;2023-04-03T05:07:02;3.60;99.90
11934;DHT22;6026;48.784;9.198;2023-04-03T05:09:28;3.60;99.90
11934;DHT22;6026;48.784;9.198;2023-04-03T05:11:53;3.60;99.90
11934;DHT22;6026;48.784;9.198;2023-04-03T05:14:19;3.60;99.90
11934;DHT22;6026;48.784;9.198;2023-04-03T05:16:45;3.50;99.90
11934;DHT22;6026;48.784;9.198;2023-04-03T05:19:10;3.60;99.90
11934;DHT22;6026;48.784;9.198;2023-04-03T05:21:36;3.60;99.90
11934;DHT22;6026;48.784;9.198;2023-04-03T05:24:02;3.60;99.90
11934;DHT22;6026;48.784;9.198;2023-04-03T05:26:29;3.60;99.90
11934;DHT22;6026;48.784;9.198;2023-04-03T05:28:55;3.60;99.90
11934;DHT22;6026;48.784;9.198;2023-04-03T05:31:21;3.60;99.90
11934;DHT22;6026;48.784;9.198;2023-04-03T05:33:46;3.60;99.90
11934;DHT22;6026;48.784;9.198;2023-04-03T05:36:12;3.60;99.90
11934;DHT22;6026;48.784;9.198;2023-04-03T05:38:39;3.60;99.90
11934;DHT22;6026;48.784;9.198;2023-04-03T05:41:04;3.60;99.90
11934;DHT22;6026;48.784;9.198;2023-04-03T05:43:30;3.60;99.90
11934;DHT22;6026;48.784;9.198;2023-04-03T05:45:56;3.70;99.90
11934;DHT22;6026;48.784;9.198;2023-04-03T05:48:22;3.70;99.90
11934;DHT22;6026;48.784;9.198;2023-04-03T05:50:47;3.70;99.90
11934;DHT22;6026;48.784;9.198;2023-04-03T05:53:21;3.70;99.90
11934;DHT22;6026;48.784;9.198;2023-04-03T05:55:47;3.70;99.90
11934;DHT22;6026;48.784;9.198;2023-04-03T05:58:13;3.60;99.90
11934;DHT22;6026;48.784;9.198;2023-04-03T06:00:38;3.70;99.90
11934;DHT22;6026;48.784;9.198;2023-04-03T06:03:04;3.70;99.90
11934;DHT22;6026;48.784;9.198;2023-04-03T06:05:30;3.70;99.90
11934;DHT22;6026;48.784;9.198;2023-04-03T06:07:56;3.70;99.90
11934;DHT22;6026;48.784;9.198;2023-04-03T06:10:22;3.80;99.90
11934;DHT22;6026;48.784;9.198;2023-04-03T06:12:48;3.80;99.90
11934;DHT22;6026;48.784;9.198;2023-04-03T06:15:14;3.80;99.90
11934;DHT22;6026;48.784;9.198;2023-04-03T06:17:40;3.90;99.90
11934;DHT22;6026;48.784;9.198;2023-04-03T06:20:06;3.80;99.90
11934;DHT22;6026;48.784;9.198;2023-04-03T06:22:31;3.90;99.90
11934;DHT22;6026;48.784;9.198;2023-04-03T06:24:57;4.00;99.90
11934;DHT22;6026;48.784;9.198;2023-04-03T06:27:23;4.00;99.90
11934;DHT22;6026;48.784;9.198;2023-04-03T06:29:49;4.00;99.90
11934;DHT22;6026;48.784;9.198;2023-04-03T06:32:16;4.10;99.90
11934;DHT22;6026;48.784;9.198;2023-04-03T06:34:41;4.10;99.90
11934;DHT22;6026;48.784;9.198;2023-04-03T06:37:14;4.10;99.90
11934;DHT22;6026;48.784;9.198;2023-04-03T06:39:40;4.10;99.90
11934;DHT22;6026;48.784;9.198;2023-04-03T06:42:07;4.10;99.90
11934;DHT22;6026;48.784;9.198;2023-04-03T06:44:32;4.20;99.90
11934;DHT22;6026;48.784;9.198;2023-04-03T06:47:00;4.10;99.90
11934;DHT22;6026;48.784;9.198;2023-04-03T06:49:26;4.10;99.90
11934;DHT22;6026;48.784;9.198;2023-04-03T06:51:51;4.30;99.90
11934;DHT22;6026;48.784;9.198;2023-04-03T06:54:17;4.20;99.90
11934;DHT22;6026;48.784;9.198;2023-04-03T06:56:43;4.30;99.90
11934;DHT22;6026;48.784;9.198;2023-04-03T06:59:11;4.20;99.90
11934;DHT22;6026;48.784;9.198;2023-04-03T07:01:38;4.30;99.90
11934;DHT22;6026;48.784;9.198;2023-04-03T07:04:03;4.30;99.90
11934;DHT22;6026;48.784;9.198;2023-04-03T07:06:29;4.20;99.90
11934;DHT22;6026;48.784;9.198;2023-04-03T07:08:56;4.20;99.90
11934;DHT22;6026;48.784;9.198;2023-04-03T07:11:22;4.30;99.90
11934;DHT22;6026;48.784;9.198;2023-04-03T07:13:48;4.40;99.90
11934;DHT22;6026;48.784;9.198;2023-04-03T07:16:13;4.40;99.90
11934;DHT22;6026;48.784;9.198;2023-04-03T07:18:39;4.50;99.90
11934;DHT22;6026;48.784;9.198;2023-04-03T07:21:05;4.50;99.90
11934;DHT22;6026;48.784;9.198;2023-04-03T07:23:31;4.50;99.90
11934;DHT22;6026;48.784;9.198;2023-04-03T07:25:57;4.50;99.90
11934;DHT22;6026;48.784;9.198;2023-04-03T07:28:22;4.60;99.90
11934;DHT22;6026;48.784;9.198;2023-04-03T07:31:06;4.60;99.90
11934;DHT22;6026;48.784;9.198;2023-04-03T07:33:37;4.70;99.90
11934;DHT22;6026;48.784;9.198;2023-04-03T07:36:04;4.90;99.90
11934;DHT22;6026;48.784;9.198;2023-04-03T07:38:30;4.90;99.90
11934;DHT22;6026;48.784;9.198;2023-04-03T07:40:56;4.90;99.90
11934;DHT22;6026;48.784;9.198;2023-04-03T07:43:22;5.00;99.90
11934;DHT22;6026;48.784;9.198;2023-04-03T07:45:50;5.10;99.90
11934;DHT22;6026;48.784;9.198;2023-04-03T07:48:18;5.20;99.90
11934;DHT22;6026;48.784;9.198;2023-04-03T07:50:44;5.30;99.90
11934;DHT22;6026;48.784;9.198;2023-04-03T07:53:10;5.30;99.90
11934;DHT22;6026;48.784;9.198;2023-04-03T07:55:36;5.50;99.90
11934;DHT22;6026;48.784;9.198;2023-04-03T07:58:11;5.50;99.90
11934;DHT22;6026;48.784;9.198;2023-04-03T08:00:37;5.40;99.90
11934;DHT22;6026;48.784;9.198;2023-04-03T08:03:04;5.50;99.90
11934;DHT22;6026;48.784;9.198;2023-04-03T08:05:29;5.50;99.90
11934;DHT22;6026;48.784;9.198;2023-04-03T08:07:55;5.50;99.90
11934;DHT22;6026;48.784;9.198;2023-04-03T08:10:20;5.50;99.90
11934;DHT22;6026;48.784;9.198;2023-04-03T08:12:47;5.50;99.90
11934;DHT22;6026;48.784;9.198;2023-04-03T08:15:13;5.50;99.90
11934;DHT22;6026;48.784;9.198;2023-04-03T08:17:39;5.50;99.90
11934;DHT22;6026;48.784;9.198;2023-04-03T08:20:05;5.60;99.90
11934;DHT22;6026;48.784;9.198;2023-04-03T08:22:32;5.60;99.90
11934;DHT22;6026;48.784;9.198;2023-04-03T08:24:58;5.70;99.90
11934;DHT22;6026;48.784;9.198;2023-04-03T08:27:24;5.60;99.90
11934;DHT22;6026;48.784;9.198;2023-04-03T08:29:49;5.60;99.90
11934;DHT22;6026;48.784;9.198;2023-04-03T08:32:15;5.60;99.90
11934;DHT22;6026;48.784;9.198;2023-04-03T08:34:41;5.70;99.90
11934;DHT22;6026;48.784;9.198;2023-04-03T08:37:06;5.70;99.90
11934;DHT22;6026;48.784;9.198;2023-04-03T08:39:32;5.70;99.90
11934;DHT22;6026;48.784;9.198;2023-04-03T08:42:00;5.80;99.90
11934;DHT22;6026;48.784;9.198;2023-04-03T08:44:55;5.70;99.90
11934;DHT22;6026;48.784;9.198;2023-04-03T08:50:00;5.60;99.90
11934;DHT22;6026;48.784;9.198;2023-04-03T08:52:41;5.80;99.90
11934;DHT22;6026;48.784;9.198;2023-04-03T08:57:57;6.00;99.90
11934;DHT22;6026;48.784;9.198;2023-04-03T09:00:27;6.00;99.90
11934;DHT22;6026;48.784;9.198;2023-04-03T09:02:54;6.10;99.90
11934;DHT22;6026;48.784;9.198;2023-04-03T09:05:39;6.20;99.90
11934;DHT22;6026;48.784;9.198;2023-04-03T09:10:38;6.10;99.90
11934;DHT22;6026;48.784;9.198;2023-04-03T09:13:36;6.20;99.90
11934;DHT22;6026;48.784;9.198;2023-04-03T09:19:53;6.30;99.90
11934;DHT22;6026;48.784;9.198;2023-04-03T09:21:50;6.50;99.90
11934;DHT22;6026;48.784;9.198;2023-04-03T09:24:17;6.60;99.90
11934;DHT22;6026;48.784;9.198;2023-04-03T09:26:48;6.60;99.90
11934;DHT22;6026;48.784;9.198;2023-04-03T09:29:19;6.50;99.90
11934;DHT22;6026;48.784;9.198;2023-04-03T09:31:49;6.40;99.90
11934;DHT22;6026;48.784;9.198;2023-04-03T09:34:25;6.30;99.90
11934;DHT22;6026;48.784;9.198;2023-04-03T09:36:55;6.20;99.90
11934;DHT22;6026;48.784;9.198;2023-04-03T09:39:30;6.10;99.90
11934;DHT22;6026;48.784;9.198;2023-04-03T09:42:01;6.20;99.90
11934;DHT22;6026;48.784;9.198;2023-04-03T09:44:37;6.20;99.90
11934;DHT22;6026;48.784;9.198;2023-04-03T09:47:26;6.10;99.90
11934;DHT22;6026;48.784;9.198;2023-04-03T09:50:18;6.10;99.90
11934;DHT22;6026;48.784;9.198;2023-04-03T09:52:47;6.10;99.90
11934;DHT22;6026;48.784;9.198;2023-04-03T09:57:45;6.20;99.90
11934;DHT22;6026;48.784;9.198;2023-04-03T10:00:35;6.10;99.90
11934;DHT22;6026;48.784;9.198;2023-04-03T10:03:02;6.20;99.90
11934;DHT22;6026;48.784;9.198;2023-04-03T10:08:32;6.20;99.90
11934;DHT22;6026;48.784;9.198;2023-04-03T10:11:27;6.20;99.90
11934;DHT22;6026;48.784;9.198;2023-04-03T10:13:56;6.10;99.90
11934;DHT22;6026;48.784;9.198;2023-04-03T10:16:33;6.10;99.90
11934;DHT22;6026;48.784;9.198;2023-04-03T10:21:55;6.20;99.90
11934;DHT22;6026;48.784;9.198;2023-04-03T10:25:03;6.10;99.90
11934;DHT22;6026;48.784;9.198;2023-04-03T10:39:35;6.30;99.90
11934;DHT22;6026;48.784;9.198;2023-04-03T10:51:24;6.20;99.90
11934;DHT22;6026;48.784;9.198;2023-04-03T10:56:50;6.50;99.90
11934;DHT22;6026;48.784;9.198;2023-04-03T11:02:30;6.70;99.90
11934;DHT22;6026;48.784;9.198;2023-04-03T11:05:05;6.70;99.90
11934;DHT22;6026;48.784;9.198;2023-04-03T11:07:38;6.70;99.90
11934;DHT22;6026;48.784;9.198;2023-04-03T11:10:19;6.60;99.90
11934;DHT22;6026;48.784;9.198;2023-04-03T11:12:52;6.60;99.90
11934;DHT22;6026;48.784;9.198;2023-04-03T11:15:22;6.60;99.90
11934;DHT22;6026;48.784;9.198;2023-04-03T11:17:58;6.70;99.90
11934;DHT22;6026;48.784;9.198;2023-04-03T11:20:31;6.70;99.90
11934;DHT22;6026;48.784;9.198;2023-04-03T11:23:21;6.70;99.90
11934;DHT22;6026;48.784;9.198;2023-04-03T11:25:50;6.70;99.90
11934;DHT22;6026;48.784;9.198;2023-04-03T11:28:18;6.60;99.90
11934;DHT22;6026;48.784;9.198;2023-04-03T11:30:49;6.60;99.90
11934;DHT22;6026;48.784;9.198;2023-04-03T11:33:37;6.50;99.90
11934;DHT22;6026;48.784;9.198;2023-04-03T11:38:45;6.50;99.90
11934;DHT22;6026;48.784;9.198;2023-04-03T11:41:13;6.50;99.90
11934;DHT22;6026;48.784;9.198;2023-04-03T11:43:42;6.60;99.90
11934;DHT22;6026;48.784;9.198;2023-04-03T11:46:20;6.50;99.90
11934;DHT22;6026;48.784;9.198;2023-04-03T11:48:48;6.50;99.90
11934;DHT22;6026;48.784;9.198;2023-04-03T11:53:42;6.50;99.90
11934;DHT22;6026;48.784;9.198;2023-04-03T12:01:55;6.60;99.90
11934;DHT22;6026;48.784;9.198;2023-04-03T12:04:23;6.60;99.90
11934;DHT22;6026;48.784;9.198;2023-04-03T12:12:38;6.70;99.90
11934;DHT22;6026;48.784;9.198;2023-04-03T12:15:25;6.70;99.90
11934;DHT22;6026;48.784;9.198;2023-04-03T12:17:51;6.80;99.90
11934;DHT22;6026;48.784;9.198;2023-04-03T12:26:27;6.60;99.90
11934;DHT22;6026;48.784;9.198;2023-04-03T12:28:53;6.60;99.90
11934;DHT22;6026;48.784;9.198;2023-04-03T12:31:23;6.60;99.90
11934;DHT22;6026;48.784;9.198;2023-04-03T12:36:48;6.80;99.90
11934;DHT22;6026;48.784;9.198;2023-04-03T12:45:23;6.80;99.90
11934;DHT22;6026;48.784;9.198;2023-04-03T12:47:51;6.80;99.90
11934;DHT22;6026;48.784;9.198;2023-04-03T12:50:23;6.70;99.90
11934;DHT22;6026;48.784;9.198;2023-04-03T12:53:11;6.80;99.90
11934;DHT22;6026;48.784;9.198;2023-04-03T12:55:37;6.70;99.90
11934;DHT22;6026;48.784;9.198;2023-04-03T12:58:26;6.80;99.90
11934;DHT22;6026;48.784;9.198;2023-04-03T13:01:04;6.90;99.90
11934;DHT22;6026;48.784;9.198;2023-04-03T13:03:30;7.00;99.90
11934;DHT22;6026;48.784;9.198;2023-04-03T13:06:00;7.10;99.90
11934;DHT22;6026;48.784;9.198;2023-04-03T13:08:27;7.30;99.90
11934;DHT22;6026;48.784;9.198;2023-04-03T13:10:57;7.50;99.90
11934;DHT22;6026;48.784;9.198;2023-04-03T13:13:23;7.60;99.90
11934;DHT22;6026;48.784;9.198;2023-04-03T13:15:49;7.80;99.90
11934;DHT22;6026;48.784;9.198;2023-04-03T13:18:28;7.80;99.90
11934;DHT22;6026;48.784;9.198;2023-04-03T13:21:01;7.80;99.90
11934;DHT22;6026;48.784;9.198;2023-04-03T13:23:29;7.80;99.90
11934;DHT22;6026;48.784;9.198;2023-04-03T13:25:55;7.80;99.90
11934;DHT22;6026;48.784;9.198;2023-04-03T13:28:26;7.80;99.90
11934;DHT22;6026;48.784;9.198;2023-04-03T13:34:03;7.70;99.90
11934;DHT22;6026;48.784;9.198;2023-04-03T13:36:37;7.70;99.90
11934;DHT22;6026;48.784;9.198;2023-04-03T13:41:44;7.70;99.90
11934;DHT22;6026;48.784;9.198;2023-04-03T13:47:15;8.10;99.90
11934;DHT22;6026;48.784;9.198;2023-04-03T13:50:03;8.40;99.90
11934;DHT22;6026;48.784;9.198;2023-04-03T13:55:11;8.60;99.90
11934;DHT22;6026;48.784;9.198;2023-04-03T13:58:20;8.70;99.90
11934;DHT22;6026;48.784;9.198;2023-04-03T14:03:42;8.90;99.90
11934;DHT22;6026;48.784;9.198;2023-04-03T14:06:12;8.90;99.90
11934;DHT22;6026;48.784;9.198;2023-04-03T14:08:38;8.90;99.90
11934;DHT22;6026;48.784;9.198;2023-04-03T14:11:03;8.80;99.90
11934;DHT22;6026;48.784;9.198;2023-04-03T14:13:30;8.70;99.90
11934;DHT22;6026;48.784;9.198;2023-04-03T14:15:56;8.50;99.90
11934;DHT22;6026;48.784;9.198;2023-04-03T14:18:22;8.40;99.90
11934;DHT22;6026;48.784;9.198;2023-04-03T14:20:49;8.20;99.90
11934;DHT22;6026;48.784;9.198;2023-04-03T14:23:15;8.10;99.90
11934;DHT22;6026;48.784;9.198;2023-04-03T14:25:41;8.10;99.90
11934;DHT22;6026;48.784;9.198;2023-04-03T14:28:17;7.90;99.90
11934;DHT22;6026;48.784;9.198;2023-04-03T14:30:44;7.90;99.90
11934;DHT22;6026;48.784;9.198;2023-04-03T14:33:14;7.70;99.90
11934;DHT22;6026;48.784;9.198;2023-04-03T14:35:40;7.60;99.90
11934;DHT22;6026;48.784;9.198;2023-04-03T14:38:25;7.70;99.90
11934;DHT22;6026;48.784;9.198;2023-04-03T14:40:54;8.00;99.90
11934;DHT22;6026;48.784;9.198;2023-04-03T14:43:21;8.40;99.90
11934;DHT22;6026;48.784;9.198;2023-04-03T14:45:47;8.60;99.90
11934;DHT22;6026;48.784;9.198;2023-04-03T14:48:19;8.80;99.90
11934;DHT22;6026;48.784;9.198;2023-04-03T14:50:45;8.80;99.90
11934;DHT22;6026;48.784;9.198;2023-04-03T14:53:12;8.70;99.90
11934;DHT22;6026;48.784;9.198;2023-04-03T14:55:38;8.60;99.90
11934;DHT22;6026;48.784;9.198;2023-04-03T14:58:04;8.50;99.90
11934;DHT22;6026;48.784;9.198;2023-04-03T15:00:29;8.40;99.90
11934;DHT22;6026;48.784;9.198;2023-04-03T15:02:55;8.30;99.90
11934;DHT22;6026;48.784;9.198;2023-04-03T15:05:20;8.20;99.90
11934;DHT22;6026;48.784;9.198;2023-04-03T15:07:53;8.20;99.90
11934;DHT22;6026;48.784;9.198;2023-04-03T15:10:28;8.20;99.90
11934;DHT22;6026;48.784;9.198;2023-04-03T15:12:55;8.20;99.90
11934;DHT22;6026;48.784;9.198;2023-04-03T15:15:22;8.00;99.90
11934;DHT22;6026;48.784;9.198;2023-04-03T15:17:52;7.90;99.90
11934;DHT22;6026;48.784;9.198;2023-04-03T15:20:25;7.90;99.90
11934;DHT22;6026;48.784;9.198;2023-04-03T15:22:52;7.90;99.90
11934;DHT22;6026;48.784;9.198;2023-04-03T15:25:18;8.00;99.90
11934;DHT22;6026;48.784;9.198;2023-04-03T15:27:44;8.00;99.90
11934;DHT22;6026;48.784;9.198;2023-04-03T15:30:18;8.00;99.90
11934;DHT22;6026;48.784;9.198;2023-04-03T15:32:44;7.90;99.90
11934;DHT22;6026;48.784;9.198;2023-04-03T15:35:09;7.70;99.90
11934;DHT22;6026;48.784;9.198;2023-04-03T15:37:35;7.60;99.90
11934;DHT22;6026;48.784;9.198;2023-04-03T15:40:01;7.60;99.90
11934;DHT22;6026;48.784;9.198;2023-04-03T15:42:26;7.50;99.90
11934;DHT22;6026;48.784;9.198;2023-04-03T15:44:52;7.40;99.90
11934;DHT22;6026;48.784;9.198;2023-04-03T15:47:17;7.20;99.90
11934;DHT22;6026;48.784;9.198;2023-04-03T15:49:43;7.10;99.90
11934;DHT22;6026;48.784;9.198;2023-04-03T15:52:09;7.10;99.90
11934;DHT22;6026;48.784;9.198;2023-04-03T15:54:35;7.30;99.90
11934;DHT22;6026;48.784;9.198;2023-04-03T15:57:00;7.50;99.90
11934;DHT22;6026;48.784;9.198;2023-04-03T15:59:26;7.60;99.90
11934;DHT22;6026;48.784;9.198;2023-04-03T16:01:52;7.70;99.90
11934;DHT22;6026;48.784;9.198;2023-04-03T16:04:18;7.80;99.90
11934;DHT22;6026;48.784;9.198;2023-04-03T16:06:45;7.70;99.90
11934;DHT22;6026;48.784;9.198;2023-04-03T16:09:11;7.60;99.90
11934;DHT22;6026;48.784;9.198;2023-04-03T16:11:37;7.70;99.90
11934;DHT22;6026;48.784;9.198;2023-04-03T16:14:06;7.90;99.90
11934;DHT22;6026;48.784;9.198;2023-04-03T16:16:32;8.00;99.90
11934;DHT22;6026;48.784;9.198;2023-04-03T16:18:58;7.90;99.90
11934;DHT22;6026;48.784;9.198;2023-04-03T16:21:23;7.90;99.90
11934;DHT22;6026;48.784;9.198;2023-04-03T16:23:49;7.90;99.90
11934;DHT22;6026;48.784;9.198;2023-04-03T16:26:15;7.80;99.90
11934;DHT22;6026;48.784;9.198;2023-04-03T16:28:43;7.60;99.90
11934;DHT22;6026;48.784;9.198;2023-04-03T16:31:09;7.50;99.90
11934;DHT22;6026;48.784;9.198;2023-04-03T16:33:35;7.20;99.90
11934;DHT22;6026;48.784;9.198;2023-04-03T16:36:03;7.10;99.90
11934;DHT22;6026;48.784;9.198;2023-04-03T16:38:28;7.00;99.90
11934;DHT22;6026;48.784;9.198;2023-04-03T16:40:54;7.00;99.90
11934;DHT22;6026;48.784;9.198;2023-04-03T16:43:22;7.00;99.90
11934;DHT22;6026;48.784;9.198;2023-04-03T16:45:48;7.00;99.90
11934;DHT22;6026;48.784;9.198;2023-04-03T16:48:14;7.10;99.90
11934;DHT22;6026;48.784;9.198;2023-04-03T16:50:39;7.20;99.90
11934;DHT22;6026;48.784;9.198;2023-04-03T16:53:05;7.10;99.90
11934;DHT22;6026;48.784;9.198;2023-04-03T16:55:38;7.20;99.90
11934;DHT22;6026;48.784;9.198;2023-04-03T16:58:06;7.20;99.90
11934;DHT22;6026;48.784;9.198;2023-04-03T17:00:34;7.20;99.90
11934;DHT22;6026;48.784;9.198;2023-04-03T17:03:01;7.10;99.90
11934;DHT22;6026;48.784;9.198;2023-04-03T17:05:34;7.00;99.90
11934;DHT22;6026;48.784;9.198;2023-04-03T17:08:00;7.00;99.90
11934;DHT22;6026;48.784;9.198;2023-04-03T17:10:30;7.00;99.90
11934;DHT22;6026;48.784;9.198;2023-04-03T17:12:58;7.00;99.90
11934;DHT22;6026;48.784;9.198;2023-04-03T17:15:25;6.90;99.90
11934;DHT22;6026;48.784;9.198;2023-04-03T17:17:51;6.90;99.90
11934;DHT22;6026;48.784;9.198;2023-04-03T17:20:17;6.90;99.90
11934;DHT22;6026;48.784;9.198;2023-04-03T17:22:43;6.80;99.90
11934;DHT22;6026;48.784;9.198;2023-04-03T17:25:10;6.80;99.90
11934;DHT22;6026;48.784;9.198;2023-04-03T17:27:36;6.70;99.90
11934;DHT22;6026;48.784;9.198;2023-04-03T17:30:02;6.70;99.90
11934;DHT22;6026;48.784;9.198;2023-04-03T17:32:28;6.60;99.90
11934;DHT22;6026;48.784;9.198;2023-04-03T17:34:54;6.50;99.90
11934;DHT22;6026;48.784;9.198;2023-04-03T17:37:19;6.50;99.90
11934;DHT22;6026;48.784;9.198;2023-04-03T17:39:45;6.50;99.90
11934;DHT22;6026;48.784;9.198;2023-04-03T17:42:11;6.30;99.90
11934;DHT22;6026;48.784;9.198;2023-04-03T17:44:37;6.30;99.90
11934;DHT22;6026;48.784;9.198;2023-04-03T17:47:02;6.20;99.90
11934;DHT22;6026;48.784;9.198;2023-04-03T17:49:28;6.10;99.90